Time;durP1;ratioP1;P1;durP2;ratioP2;P2;SDS_P1;SDS_P2;PMS_P1;PMS_P2;Temp;Humidity;BMP_temperature;BMP_pressure;BME280_temperature;BME280_humidity;BME280_pressure;Samples;Min_cycle;Max_cycle;Signal;HPM_P1;HPM_P2
2022/09/16 00:01:11;;;;;;;;;;;;;;;13.47;75.17;97385.78;4928484;29;19927;-80
2022/09/16 00:03:39;;;;;;;;;;;;;;;13.47;75.15;97385.00;4943172;28;19926;-79
2022/09/16 00:06:07;;;;;;;;;;;;;;;13.46;75.41;97377.94;4938241;29;19927;-79
2022/09/16 00:08:45;;;;;;;;;;;;;;;13.49;75.16;97377.28;4931226;29;19926;-78
2022/09/16 00:11:13;;;;;;;;;;;;;;;13.49;75.03;97382.72;4935589;29;20416;-81
2022/09/16 00:13:45;;;;;;;;;;;;;;;13.48;74.82;97375.69;4939997;29;20405;-78
2022/09/16 00:16:16;;;;;;;;;;;;;;;13.47;74.37;97376.81;4957336;28;19931;-80
2022/09/16 00:18:44;;;;;;;;;;;;;;;13.47;74.44;97380.31;4959476;28;20392;-79
2022/09/16 00:21:12;;;;;;;;;;;;;;;13.48;73.95;97381.94;4926054;29;19927;-78
2022/09/16 00:23:40;;;;;;;;;;;;;;;13.50;73.39;97374.19;4963014;28;19973;-79
2022/09/16 00:26:07;;;;;;;;;;;;;;;13.50;73.90;97378.84;4938609;29;19973;-78
2022/09/16 00:28:35;;;;;;;;;;;;;;;13.53;73.81;97369.97;4948825;29;19933;-78
2022/09/16 00:31:05;;;;;;;;;;;;;;;13.54;73.94;97374.31;4929994;29;19927;-79
2022/09/16 00:33:33;;;;;;;;;;;;;;;13.50;73.46;97374.19;4966963;28;19934;-79
2022/09/16 00:36:05;;;;;;;;;;;;;;;13.46;73.07;97367.81;4934417;29;19931;-80
2022/09/16 00:38:33;;;;;;;;;;;;;;;13.46;73.14;97367.03;4936213;29;20023;-81
2022/09/16 00:41:00;;;;;;;;;;;;;;;13.48;72.63;97375.69;4965409;28;19926;-79
2022/09/16 00:43:28;;;;;;;;;;;;;;;13.47;72.56;97372.13;4933492;29;20013;-79
2022/09/16 00:45:57;;;;;;;;;;;;;;;13.49;72.54;97377.28;4957529;28;20381;-79
2022/09/16 00:48:27;;;;;;;;;;;;;;;13.49;72.48;97377.28;4959706;28;20025;-78
2022/09/16 00:50:56;;;;;;;;;;;;;;;13.50;72.54;97374.19;4945859;28;19926;-79
2022/09/16 00:53:26;;;;;;;;;;;;;;;13.50;72.73;97374.19;4931975;29;19962;-78
2022/09/16 00:55:54;;;;;;;;;;;;;;;13.52;72.60;97374.63;4937539;29;19937;-80
2022/09/16 00:58:25;;;;;;;;;;;;;;;13.50;72.34;97363.28;4956484;28;19933;-78
2022/09/16 01:00:53;;;;;;;;;;;;;;;13.51;72.48;97373.03;4940611;28;19934;-79
2022/09/16 01:03:22;;;;;;;;;;;;;;;13.49;72.43;97375.34;4956323;28;20017;-79
2022/09/16 01:05:51;;;;;;;;;;;;;;;13.44;72.20;97370.13;4961799;28;19927;-80
2022/09/16 01:08:19;;;;;;;;;;;;;;;13.40;72.41;97366.47;4923755;28;19927;-79
2022/09/16 01:10:47;;;;;;;;;;;;;;;13.36;72.52;97371.81;4923065;28;19941;-79
2022/09/16 01:13:15;;;;;;;;;;;;;;;13.35;72.75;97372.16;4934051;29;19958;-80
2022/09/16 01:15:44;;;;;;;;;;;;;;;13.34;73.29;97370.56;4945286;29;19926;-79
2022/09/16 01:18:14;;;;;;;;;;;;;;;13.38;72.59;97370.69;4916793;29;20496;-80
2022/09/16 01:20:50;;;;;;;;;;;;;;;13.36;72.41;97362.84;4939594;29;19927;-79
2022/09/16 01:23:27;;;;;;;;;;;;;;;13.35;71.85;97366.69;4930339;28;19927;-79
2022/09/16 01:26:01;;;;;;;;;;;;;;;13.32;72.21;97372.84;4961884;28;19941;-79
2022/09/16 01:28:37;;;;;;;;;;;;;;;13.32;72.08;97367.41;4956928;28;19948;-79
2022/09/16 01:31:08;;;;;;;;;;;;;;;13.30;71.70;97366.94;4933527;29;20463;-79
2022/09/16 01:33:39;;;;;;;;;;;;;;;13.30;71.92;97365.00;4938384;29;19935;-78
2022/09/16 01:36:14;;;;;;;;;;;;;;;13.30;71.88;97369.66;4940294;29;19927;-80
2022/09/16 01:38:47;;;;;;;;;;;;;;;13.29;71.52;97368.06;4924158;29;19982;-79
2022/09/16 01:41:19;;;;;;;;;;;;;;;13.28;71.32;97366.50;4918593;29;20034;-80
2022/09/16 01:43:50;;;;;;;;;;;;;;;13.30;71.62;97370.44;4936261;29;19927;-79
2022/09/16 01:46:21;;;;;;;;;;;;;;;13.29;71.16;97365.34;4922183;29;19930;-80
2022/09/16 01:48:53;;;;;;;;;;;;;;;13.30;71.60;97366.94;4963866;28;19927;-79
2022/09/16 01:51:28;;;;;;;;;;;;;;;13.28;71.45;97358.31;4957444;28;19926;-80
2022/09/16 01:53:58;;;;;;;;;;;;;;;13.28;71.48;97364.56;4951254;28;19926;-80
2022/09/16 01:56:51;;;;;;;;;;;;;;;13.27;71.26;97371.16;4970018;28;19977;-80
2022/09/16 02:00:15;;;;;;;;;;;;;;;13.26;71.42;97364.13;4942497;28;19938;-79
2022/09/16 02:02:45;;;;;;;;;;;;;;;13.26;71.73;97372.28;4925307;29;19931;-79
2022/09/16 02:05:19;;;;;;;;;;;;;;;13.26;71.49;97368.75;4922977;29;20380;-81
2022/09/16 02:07:47;;;;;;;;;;;;;;;13.28;71.64;97367.28;4920131;29;19927;-80
2022/09/16 02:10:17;;;;;;;;;;;;;;;13.28;71.31;97363.75;4925990;29;19927;-80
2022/09/16 02:12:45;;;;;;;;;;;;;;;13.26;71.33;97358.66;4903017;29;19927;-80
2022/09/16 02:15:17;;;;;;;;;;;;;;;13.26;71.44;97364.13;4918386;29;19931;-79
2022/09/16 02:17:48;;;;;;;;;;;;;;;13.26;71.25;97364.13;4935946;29;19927;-80
2022/09/16 02:20:17;;;;;;;;;;;;;;;13.27;71.47;97364.91;4933482;29;20029;-80
2022/09/16 02:22:47;;;;;;;;;;;;;;;13.24;71.60;97365.56;4919305;29;19927;-77
2022/09/16 02:25:16;;;;;;;;;;;;;;;13.24;71.33;97363.63;4929304;29;19974;-79
2022/09/16 02:27:44;;;;;;;;;;;;;;;13.27;71.40;97375.81;4937296;29;20025;-78
2022/09/16 02:30:15;;;;;;;;;;;;;;;13.28;71.54;97374.66;4958416;29;19969;-78
2022/09/16 02:32:55;;;;;;;;;;;;;;;13.30;71.44;97366.94;4956288;29;19935;-79
2022/09/16 02:35:25;;;;;;;;;;;;;;;13.26;71.32;97369.56;4926867;29;20368;-79
2022/09/16 02:37:55;;;;;;;;;;;;;;;13.24;71.70;97371.03;4925249;29;20408;-81
2022/09/16 02:40:24;;;;;;;;;;;;;;;13.21;72.15;97371.66;4916489;29;20014;-80
2022/09/16 02:42:53;;;;;;;;;;;;;;;13.20;72.44;97368.16;4900804;29;19927;-79
2022/09/16 02:45:21;;;;;;;;;;;;;;;13.20;72.29;97370.09;4904951;29;19935;-78
2022/09/16 02:47:52;;;;;;;;;;;;;;;13.21;72.13;97367.06;4917439;29;19934;-81
2022/09/16 02:50:24;;;;;;;;;;;;;;;13.18;72.32;97366.91;4918615;29;19926;-81
2022/09/16 02:52:53;;;;;;;;;;;;;;;13.15;72.30;97370.31;4915125;29;19926;-80
2022/09/16 02:55:25;;;;;;;;;;;;;;;13.15;72.32;97373.03;4931785;29;20288;-79
2022/09/16 02:57:54;;;;;;;;;;;;;;;13.17;72.49;97368.84;4906858;29;20393;-79
2022/09/16 03:00:22;;;;;;;;;;;;;;;13.13;72.12;97370.66;4902693;29;19927;-80
2022/09/16 03:02:50;;;;;;;;;;;;;;;13.12;72.53;97355.44;4912830;29;19927;-78
2022/09/16 03:05:18;;;;;;;;;;;;;;;13.15;72.32;97362.13;4901038;29;19927;-78
2022/09/16 03:07:49;;;;;;;;;;;;;;;13.13;72.06;97364.41;4925391;29;20024;-78
2022/09/16 03:10:17;;;;;;;;;;;;;;;13.13;71.60;97361.69;4962981;28;20356;-79
2022/09/16 03:12:48;;;;;;;;;;;;;;;13.11;72.08;97365.56;4954430;28;19926;-79
2022/09/16 03:15:40;;;;;;;;;;;;;;;13.11;71.56;97373.75;4940641;29;20013;-79
2022/09/16 03:18:13;;;;;;;;;;;;;;;13.09;71.91;97367.00;4932352;29;19930;-81
2022/09/16 03:20:42;;;;;;;;;;;;;;;13.10;71.75;97372.16;4965510;28;20443;-79
2022/09/16 03:23:19;;;;;;;;;;;;;;;13.10;71.53;97363.97;4939026;29;19926;-79
2022/09/16 03:25:50;;;;;;;;;;;;;;;13.10;71.95;97372.16;4948655;28;19927;-79
2022/09/16 03:28:19;;;;;;;;;;;;;;;13.10;71.09;97365.88;4952945;28;19958;-79
2022/09/16 03:30:48;;;;;;;;;;;;;;;13.08;71.38;97368.94;4950324;28;19933;-79
2022/09/16 03:33:19;;;;;;;;;;;;;;;13.06;71.39;97360.31;4944816;29;19933;-79
2022/09/16 03:35:48;;;;;;;;;;;;;;;13.04;71.84;97359.06;4946892;29;19926;-79
2022/09/16 03:38:17;;;;;;;;;;;;;;;13.03;71.89;97362.94;4954734;28;19926;-79
2022/09/16 03:40:45;;;;;;;;;;;;;;;13.02;72.01;97364.88;4938608;29;19930;-80
2022/09/16 03:43:14;;;;;;;;;;;;;;;13.00;72.05;97358.16;4960605;28;19954;-79
2022/09/16 03:45:43;;;;;;;;;;;;;;;12.97;72.06;97356.91;4930629;29;20010;-79
2022/09/16 03:48:17;;;;;;;;;;;;;;;12.98;72.17;97361.22;4924483;29;19927;-80
2022/09/16 03:50:45;;;;;;;;;;;;;;;12.97;72.50;97359.63;4972189;28;20266;-80
2022/09/16 03:53:13;;;;;;;;;;;;;;;12.97;72.16;97356.91;4957548;28;19931;-79
2022/09/16 03:55:43;;;;;;;;;;;;;;;12.99;72.15;97353.84;4908602;29;20389;-80
2022/09/16 03:58:12;;;;;;;;;;;;;;;12.97;72.21;97348.72;4932628;29;19933;-80
2022/09/16 04:00:42;;;;;;;;;;;;;;;12.96;71.87;97349.06;4925974;29;19927;-82
2022/09/16 04:03:10;;;;;;;;;;;;;;;12.95;72.07;97348.28;4932387;29;20440;-78
2022/09/16 04:05:38;;;;;;;;;;;;;;;12.95;71.90;97348.28;4928646;29;19935;-78
2022/09/16 04:08:06;;;;;;;;;;;;;;;12.92;71.81;97348.94;4931564;29;19927;-79
2022/09/16 04:10:34;;;;;;;;;;;;;;;12.93;72.08;97347.00;4922238;29;19927;-79
2022/09/16 04:13:27;;;;;;;;;;;;;;;12.91;71.89;97350.09;4924750;29;20008;-79
2022/09/16 04:16:04;;;;;;;;;;;;;;;12.90;72.33;97355.91;4903636;29;19931;-81
2022/09/16 04:18:39;;;;;;;;;;;;;;;12.89;72.35;97352.38;4940155;29;20013;-79
2022/09/16 04:21:28;;;;;;;;;;;;;;;12.89;72.24;97348.81;4923686;29;20005;-79
2022/09/16 04:23:56;;;;;;;;;;;;;;;12.88;72.21;97348.03;4939341;29;19970;-78
2022/09/16 04:26:24;;;;;;;;;;;;;;;12.87;72.35;97346.44;4942706;29;20456;-80
2022/09/16 04:28:52;;;;;;;;;;;;;;;12.87;72.39;97351.09;4921773;29;19945;-81
2022/09/16 04:31:21;;;;;;;;;;;;;;;12.85;72.61;97344.06;4930182;29;19948;-79
2022/09/16 04:33:49;;;;;;;;;;;;;;;12.86;72.35;97344.88;4938097;29;20017;-83
2022/09/16 04:36:18;;;;;;;;;;;;;;;12.83;72.45;97343.59;4930042;29;20053;-78
2022/09/16 04:38:46;;;;;;;;;;;;;;;12.84;72.57;97336.25;4947214;29;20440;-78
2022/09/16 04:41:17;;;;;;;;;;;;;;;12.83;72.58;97334.63;4904392;29;20408;-80
2022/09/16 04:43:45;;;;;;;;;;;;;;;12.81;72.66;97334.19;4937586;29;20013;-78
2022/09/16 04:46:13;;;;;;;;;;;;;;;12.81;72.81;97336.91;4930517;29;19950;-85
2022/09/16 04:48:43;;;;;;;;;;;;;;;12.81;72.76;97340.44;4925823;29;19927;-80
2022/09/16 04:51:11;;;;;;;;;;;;;;;12.79;73.24;97333.72;4927494;29;20022;-82
2022/09/16 04:53:49;;;;;;;;;;;;;;;12.80;72.95;97327.94;4931175;29;19934;-81
2022/09/16 04:56:18;;;;;;;;;;;;;;;12.82;73.11;97327.59;4937191;29;20018;-80
2022/09/16 04:58:48;;;;;;;;;;;;;;;12.85;73.61;97299.66;4904044;29;19930;-78
2022/09/16 05:01:17;;;;;;;;;;;;;;;12.88;73.19;97317.25;4918544;29;19935;-76
2022/09/16 05:03:47;;;;;;;;;;;;;;;12.89;73.36;97340.66;4902363;29;19966;-76
2022/09/16 05:06:16;;;;;;;;;;;;;;;12.91;72.75;97341.91;4902935;29;20008;-79
2022/09/16 05:08:48;;;;;;;;;;;;;;;12.93;72.55;97331.44;4914190;29;19931;-77
2022/09/16 05:11:19;;;;;;;;;;;;;;;12.92;73.10;97318.16;4926408;29;19977;-78
2022/09/16 05:13:47;;;;;;;;;;;;;;;12.91;72.89;97333.72;4920149;29;19931;-88
2022/09/16 05:16:16;;;;;;;;;;;;;;;12.94;72.42;97334.97;4921391;29;19926;-84
2022/09/16 05:18:53;;;;;;;;;;;;;;;12.97;72.26;97348.72;4938634;29;19997;-75
2022/09/16 05:21:23;;;;;;;;;;;;;;;12.96;72.03;97349.88;4954761;29;20026;-76
2022/09/16 05:23:51;;;;;;;;;;;;;;;12.94;72.14;97352.13;4926911;29;20297;-77
2022/09/16 05:26:20;;;;;;;;;;;;;;;12.94;72.00;97359.50;4959043;28;20403;-76
2022/09/16 05:28:49;;;;;;;;;;;;;;;12.90;72.07;97367.59;4938991;28;19926;-89
2022/09/16 05:31:18;;;;;;;;;;;;;;;12.88;72.11;97358.94;4938679;29;20025;-76
2022/09/16 05:33:47;;;;;;;;;;;;;;;12.87;72.08;97370.97;4954458;28;20033;-77
2022/09/16 05:36:28;;;;;;;;;;;;;;;12.85;71.84;97365.88;4956263;28;20001;-77
2022/09/16 05:38:56;;;;;;;;;;;;;;;12.83;71.79;97361.88;4939946;28;19931;-76
2022/09/16 05:41:44;;;;;;;;;;;;;;;12.82;71.75;97349.41;4919370;29;19949;-76
2022/09/16 05:44:15;;;;;;;;;;;;;;;12.80;71.85;97352.47;4960165;28;19927;-76
2022/09/16 05:46:43;;;;;;;;;;;;;;;12.81;72.25;97362.22;4954887;28;19926;-76
2022/09/16 05:49:19;;;;;;;;;;;;;;;12.84;72.16;97358.84;4958258;28;20424;-76
2022/09/16 05:51:49;;;;;;;;;;;;;;;12.87;71.58;97367.47;4923112;28;19934;-76
2022/09/16 05:54:24;;;;;;;;;;;;;;;12.85;71.40;97365.88;4933584;29;20269;-75
2022/09/16 05:56:55;;;;;;;;;;;;;;;12.85;71.26;97365.88;4946481;28;19926;-75
2022/09/16 05:59:23;;;;;;;;;;;;;;;12.81;71.11;97369.63;4961088;28;19927;-76
2022/09/16 06:01:57;;;;;;;;;;;;;;;12.82;71.36;97377.44;4963799;28;19930;-76
2022/09/16 06:04:50;;;;;;;;;;;;;;;12.81;71.20;97370.41;4953792;28;20017;-76
2022/09/16 06:07:44;;;;;;;;;;;;;;;12.81;71.46;97372.34;4952766;28;19930;-76
2022/09/16 06:10:12;;;;;;;;;;;;;;;12.84;71.58;97368.94;4957803;28;19982;-76
2022/09/16 06:12:41;;;;;;;;;;;;;;;12.82;71.21;97374.72;4960620;28;19926;-76
2022/09/16 06:15:24;;;;;;;;;;;;;;;12.88;71.02;97379.94;4936069;29;19930;-76
2022/09/16 06:17:54;;;;;;;;;;;;;;;12.86;70.44;97380.31;4951065;28;20006;-76
2022/09/16 06:20:22;;;;;;;;;;;;;;;12.83;70.99;97379.03;4956322;28;19993;-76
2022/09/16 06:22:56;;;;;;;;;;;;;;;12.88;70.22;97383.47;4955082;28;20013;-77
2022/09/16 06:25:25;;;;;;;;;;;;;;;12.86;70.22;97374.84;4958216;28;19927;-75
2022/09/16 06:27:53;;;;;;;;;;;;;;;12.84;70.49;97368.94;4958147;28;20305;-75
2022/09/16 06:30:29;;;;;;;;;;;;;;;12.85;70.14;97371.34;4953744;28;19927;-75
2022/09/16 06:33:04;;;;;;;;;;;;;;;12.89;70.53;97366.00;4948764;29;19962;-76
2022/09/16 06:35:35;;;;;;;;;;;;;;;12.93;70.08;97363.38;4927897;29;19973;-76
2022/09/16 06:38:05;;;;;;;;;;;;;;;12.88;70.33;97364.38;4955911;28;19953;-75
2022/09/16 06:40:33;;;;;;;;;;;;;;;12.93;69.76;97366.91;4960268;28;19927;-75
2022/09/16 06:43:01;;;;;;;;;;;;;;;12.88;69.97;97367.13;4920595;29;19927;-75
2022/09/16 06:45:29;;;;;;;;;;;;;;;12.84;70.01;97366.22;4960230;28;19927;-75
2022/09/16 06:47:58;;;;;;;;;;;;;;;12.84;69.76;97363.50;4976147;28;19933;-78
2022/09/16 06:50:29;;;;;;;;;;;;;;;12.86;69.78;97361.22;4953819;28;20365;-77
2022/09/16 06:52:57;;;;;;;;;;;;;;;12.87;69.93;97362.81;4919975;29;20304;-78
2022/09/16 06:55:26;;;;;;;;;;;;;;;12.87;69.61;97360.06;4946138;29;19989;-76
2022/09/16 06:57:56;;;;;;;;;;;;;;;12.87;69.92;97362.81;4927118;29;20010;-76
2022/09/16 07:00:24;;;;;;;;;;;;;;;12.89;70.08;97362.47;4921872;29;20018;-76
2022/09/16 07:02:52;;;;;;;;;;;;;;;12.91;69.77;97363.72;4938952;29;20043;-76
2022/09/16 07:05:20;;;;;;;;;;;;;;;12.96;69.56;97366.22;4920491;28;19927;-77
2022/09/16 07:07:48;;;;;;;;;;;;;;;12.98;69.23;97363.16;4918839;29;19927;-76
2022/09/16 07:10:18;;;;;;;;;;;;;;;13.00;69.13;97367.16;4941010;29;19930;-76
2022/09/16 07:12:47;;;;;;;;;;;;;;;13.07;69.05;97367.38;4935413;29;20381;-76
2022/09/16 07:15:16;;;;;;;;;;;;;;;13.11;69.03;97376.47;4930532;29;19937;-77
2022/09/16 07:17:46;;;;;;;;;;;;;;;13.09;67.47;97377.94;4936408;29;19927;-76
2022/09/16 07:20:14;;;;;;;;;;;;;;;13.07;67.29;97367.38;4956632;28;19977;-76
2022/09/16 07:22:43;;;;;;;;;;;;;;;13.10;67.91;97368.59;4954724;28;19930;-75
2022/09/16 07:25:10;;;;;;;;;;;;;;;13.12;68.15;97374.53;4920102;29;19930;-76
2022/09/16 07:27:39;;;;;;;;;;;;;;;13.16;67.58;97374.66;4921031;29;20384;-75
2022/09/16 07:30:11;;;;;;;;;;;;;;;13.26;66.81;97366.00;4934839;29;20407;-75
2022/09/16 07:32:41;;;;;;;;;;;;;;;13.22;66.25;97370.59;4907102;29;19934;-75
2022/09/16 07:35:09;;;;;;;;;;;;;;;13.21;66.23;97368.94;4928665;29;20029;-75
2022/09/16 07:37:39;;;;;;;;;;;;;;;13.19;65.82;97372.03;4943893;28;19926;-75
2022/09/16 07:40:12;;;;;;;;;;;;;;;13.18;65.70;97372.38;4940812;29;19926;-84
2022/09/16 07:42:41;;;;;;;;;;;;;;;13.23;65.19;97364.00;4939463;29;20035;-76
2022/09/16 07:45:09;;;;;;;;;;;;;;;13.21;65.34;97371.66;4924334;29;19937;-76
2022/09/16 07:47:38;;;;;;;;;;;;;;;13.27;64.80;97376.59;4942141;29;20069;-76
2022/09/16 07:50:07;;;;;;;;;;;;;;;13.29;65.02;97370.81;4935074;29;19961;-75
2022/09/16 07:52:35;;;;;;;;;;;;;;;13.32;65.03;97367.41;4941733;29;19926;-75
2022/09/16 07:55:03;;;;;;;;;;;;;;;13.39;64.79;97372.28;4964409;28;19926;-76
2022/09/16 07:57:31;;;;;;;;;;;;;;;13.40;64.30;97369.19;4956689;28;20304;-75
2022/09/16 08:00:00;;;;;;;;;;;;;;;13.34;63.73;97357.72;4940026;29;20045;-75
2022/09/16 08:02:57;;;;;;;;;;;;;;;13.35;63.98;97372.16;4961777;28;19965;-75
2022/09/16 08:05:26;;;;;;;;;;;;;;;13.37;63.66;97369.91;4964077;28;19977;-75
2022/09/16 08:07:56;;;;;;;;;;;;;;;13.41;63.98;97376.25;4940086;29;19949;-75
2022/09/16 08:10:25;;;;;;;;;;;;;;;13.46;63.68;97372.50;4966577;28;19978;-75
2022/09/16 08:12:55;;;;;;;;;;;;;;;13.36;63.53;97369.09;4940773;29;19965;-75
2022/09/16 08:15:23;;;;;;;;;;;;;;;13.39;63.95;97377.75;4923563;28;19926;-75
2022/09/16 08:17:51;;;;;;;;;;;;;;;13.41;63.02;97364.53;4928533;29;19957;-76
2022/09/16 08:20:21;;;;;;;;;;;;;;;13.42;63.17;97372.38;4964661;28;19930;-76
2022/09/16 08:22:49;;;;;;;;;;;;;;;13.45;63.30;97382.63;4933690;29;20373;-77
2022/09/16 08:25:21;;;;;;;;;;;;;;;13.43;62.84;97379.44;4968321;28;20357;-76
2022/09/16 08:27:49;;;;;;;;;;;;;;;13.42;62.62;97380.56;4960680;28;19930;-75
2022/09/16 08:30:21;;;;;;;;;;;;;;;13.42;62.77;97377.03;4929306;28;19941;-77
2022/09/16 08:32:48;;;;;;;;;;;;;;;13.47;62.98;97377.59;4941859;29;20010;-76
2022/09/16 08:35:19;;;;;;;;;;;;;;;13.45;62.52;97385.34;4939657;28;20389;-79
2022/09/16 08:37:50;;;;;;;;;;;;;;;13.46;62.33;97378.75;4930459;29;19927;-77
2022/09/16 08:40:20;;;;;;;;;;;;;;;13.39;61.95;97378.53;4955347;28;19927;-77
2022/09/16 08:42:56;;;;;;;;;;;;;;;13.40;62.35;97379.31;4922104;29;19927;-79
2022/09/16 08:45:27;;;;;;;;;;;;;;;13.42;62.08;97380.56;4924122;28;19927;-75
2022/09/16 08:48:00;;;;;;;;;;;;;;;13.45;61.39;97379.09;4960953;28;20029;-77
2022/09/16 08:50:53;;;;;;;;;;;;;;;13.53;61.23;97384.44;4972962;28;19926;-76
2022/09/16 08:53:24;;;;;;;;;;;;;;;13.57;60.86;97379.06;4936129;28;19933;-77
2022/09/16 08:56:03;;;;;;;;;;;;;;;13.52;60.63;97374.63;4939615;28;19931;-77
2022/09/16 08:58:34;;;;;;;;;;;;;;;13.47;61.22;97380.31;4929116;28;19926;-76
2022/09/16 09:01:14;;;;;;;;;;;;;;;13.55;61.71;97381.34;4941743;29;19934;-76
2022/09/16 09:03:43;;;;;;;;;;;;;;;13.57;61.59;97379.06;4937521;29;19953;-76
2022/09/16 09:06:14;;;;;;;;;;;;;;;13.50;61.05;97370.69;4922027;29;20017;-76
2022/09/16 09:08:45;;;;;;;;;;;;;;;13.49;60.33;97371.81;4922279;28;19926;-77
2022/09/16 09:11:15;;;;;;;;;;;;;;;13.48;60.37;97375.69;4942200;28;19934;-76
2022/09/16 09:13:48;;;;;;;;;;;;;;;13.46;60.34;97373.28;4918710;29;19927;-76
2022/09/16 09:16:18;;;;;;;;;;;;;;;13.55;60.44;97375.91;4916916;29;19926;-76
2022/09/16 09:18:49;;;;;;;;;;;;;;;13.46;60.55;97377.94;4962372;28;19961;-76
2022/09/16 09:21:22;;;;;;;;;;;;;;;13.45;60.88;97382.63;4930370;28;19934;-77
2022/09/16 09:24:00;;;;;;;;;;;;;;;13.49;61.15;97377.28;4948690;29;19926;-75
2022/09/16 09:26:30;;;;;;;;;;;;;;;13.53;61.10;97381.72;4963185;28;19977;-75
2022/09/16 09:29:03;;;;;;;;;;;;;;;13.57;61.10;97387.25;4947282;28;19934;-75
2022/09/16 09:31:36;;;;;;;;;;;;;;;13.50;60.74;97379.66;4950091;29;19926;-75
2022/09/16 09:34:06;;;;;;;;;;;;;;;13.49;60.88;97377.28;4923377;28;19933;-76
2022/09/16 09:36:40;;;;;;;;;;;;;;;13.50;61.18;97376.91;4938124;28;19927;-84
2022/09/16 09:39:23;;;;;;;;;;;;;;;13.51;60.86;97372.25;4956843;28;19962;-83
2022/09/16 09:41:51;;;;;;;;;;;;;;;13.58;61.43;97383.38;4921606;29;19964;-76
2022/09/16 09:44:26;;;;;;;;;;;;;;;13.67;61.52;97383.25;4937904;28;19926;-76
2022/09/16 09:46:55;;;;;;;;;;;;;;;13.72;60.75;97385.75;4917267;28;20013;-79
2022/09/16 09:49:49;;;;;;;;;;;;;;;13.68;61.27;97384.84;4940151;28;19926;-83
2022/09/16 09:52:21;;;;;;;;;;;;;;;13.66;61.21;97387.94;4918064;28;19926;-76
2022/09/16 09:54:54;;;;;;;;;;;;;;;13.57;60.62;97379.84;4958710;28;19981;-76
2022/09/16 09:57:26;;;;;;;;;;;;;;;13.52;61.02;97374.63;4936938;29;20020;-73
2022/09/16 09:59:57;;;;;;;;;;;;;;;13.59;60.81;97382.28;4958526;28;19926;-82
2022/09/16 10:02:27;;;;;;;;;;;;;;;13.71;60.53;97373.25;4957872;28;20340;-86
2022/09/16 10:05:24;;;;;;;;;;;;;;;13.74;60.09;97373.38;4956015;28;19926;-89
2022/09/16 10:07:57;;;;;;;;;;;;;;;13.88;59.81;97372.97;4922027;28;19997;-85
2022/09/16 10:10:39;;;;;;;;;;;;;;;13.95;60.13;97372.38;4934733;29;19934;-85
2022/09/16 10:13:13;;;;;;;;;;;;;;;14.03;59.66;97376.91;4918438;29;19926;-84
2022/09/16 10:15:43;;;;;;;;;;;;;;;14.09;58.65;97372.78;4938991;28;19926;-84
2022/09/16 10:18:14;;;;;;;;;;;;;;;14.14;58.72;97373.34;4943066;29;19927;-84
2022/09/16 10:20:43;;;;;;;;;;;;;;;14.12;57.80;97361.97;4942995;29;20005;-84
2022/09/16 10:23:13;;;;;;;153.95;39.20;;;;;;;14.20;58.09;97367.63;4937673;28;19927;-81
2022/09/16 10:26:14;;;;;;;;;;;;;;;14.28;57.06;97369.44;4920416;29;20435;-81
2022/09/16 10:28:43;;;;;;;;;;;;;;;14.25;55.75;97368.19;4942499;29;19922;-84
2022/09/16 10:31:11;;;;;;;;;;;;;;;14.22;55.48;97360.69;4926081;28;19933;-83
2022/09/16 10:33:41;;;;;;;;;;;;;;;14.26;56.25;97364.28;4926997;28;19923;-81
2022/09/16 10:36:11;;;;;;;;;;;;;;;14.32;56.57;97360.16;4922445;28;19953;-79
2022/09/16 10:38:44;;;;;;;;;;;;;;;14.33;56.62;97352.78;4930440;29;20005;-84
2022/09/16 10:41:16;;;;;;;;;;;;;;;14.39;54.84;97348.66;4923575;29;19930;-85
2022/09/16 10:43:47;;;;;;;;;;;;;;;14.35;54.62;97355.97;4936738;29;20440;-85
2022/09/16 10:46:15;;;;;;;;;;;;;;;14.40;56.16;97350.25;4922507;29;20069;-84
2022/09/16 10:48:43;;;;;;;;;;;;;;;14.35;55.08;97353.22;4921550;29;20400;-83
2022/09/16 10:51:19;;;;;;;;;;;;;;;14.34;56.17;97351.63;4944212;29;20380;-81
2022/09/16 10:53:53;;;;;;;;;;;;;;;14.36;56.05;97357.53;4926445;29;20017;-84
2022/09/16 10:56:23;;;;;;;;;;;;;;;14.29;56.47;97347.22;4954800;29;19922;-81
2022/09/16 10:59:01;;;;;;;;;;;;;;;14.27;56.89;97345.97;4930121;29;19926;-81
2022/09/16 11:01:33;;;;;;;;;;;;;;;14.23;56.94;97347.81;4927964;29;20013;-80
2022/09/16 11:07:31;;;;;;;;;;;;;;;14.09;57.37;97340.03;4919546;29;19981;-81
2022/09/16 11:10:01;;;;;;;;;;;;;;;14.12;56.79;97350.25;4955368;28;19929;-82
2022/09/16 11:12:34;;;;;;;;;;;;;;;14.08;56.03;97344.69;4923330;29;19922;-83
2022/09/16 11:15:04;;;;;;;;;;;;;;;14.07;56.21;97354.03;4918089;29;20357;-79
2022/09/16 11:17:39;;;;;;;;;;;;;;;14.08;55.83;97350.16;4917147;29;20013;-79
2022/09/16 11:20:37;;;;;;;;;;;;;;;14.06;55.60;97351.63;4937602;29;19949;-79
2022/09/16 11:23:07;;;;;;;;;;;;;;;14.06;55.98;97343.44;4897929;29;19924;-81
2022/09/16 11:26:00;;;;;;;;;;;;;;;14.09;55.46;97356.41;4931179;29;19945;-80
2022/09/16 11:28:43;;;;;;;;;;;;;;;14.02;55.60;97351.53;4942486;28;19930;-79
2022/09/16 11:31:15;;;;;;;;;;;;;;;14.05;56.03;97344.59;4924405;29;19930;-82
2022/09/16 11:33:45;;;;;;;;;;;;;;;14.10;55.94;97347.06;4954284;28;19930;-79
2022/09/16 11:36:31;;;;;;;;;;;;;;;14.16;55.56;97351.94;4937620;28;19926;-80
2022/09/16 11:39:02;;;;;;;;;;;;;;;14.25;56.11;97348.25;4943715;29;19922;-81
2022/09/16 11:41:31;;;;;;;;;;;;;;;14.28;56.65;97361.25;4962542;28;20342;-82
2022/09/16 11:44:03;;;;;;;;;;;;;;;14.29;56.44;97349.94;4956295;28;20349;-91
2022/09/16 11:46:34;;;;;;;;;;;;;;;14.29;55.70;97344.50;4939469;29;19957;-85
2022/09/16 11:49:09;;;;;;;;;;;;;;;14.26;56.03;97353.38;4926189;29;20337;-85
2022/09/16 11:51:45;;;;;;;;;;;;;;;14.34;56.55;97344.22;4938901;28;19930;-85
2022/09/16 11:54:19;;;;;;;;;;;;;;;14.36;56.20;97338.41;4941561;29;20420;-87
2022/09/16 11:57:12;;;;;;;;;;;;;;;14.44;55.57;97340.19;4937274;28;19922;-86
2022/09/16 12:00:30;;;;;;;;;;;;;;;14.56;55.83;97342.88;4942350;28;19922;-87
2022/09/16 12:03:00;;;;;;;;;;;;;;;14.63;54.71;97342.28;4930944;29;20032;-88
2022/09/16 12:05:39;;;;;;;;;;;;;;;14.68;54.16;97337.34;4953089;28;19922;-90
2022/09/16 12:08:10;;;;;;;;;;;;;;;14.62;53.73;97333.28;4963711;28;20380;-91
2022/09/16 12:10:43;;;;;;;;;;;;;;;14.70;53.67;97333.44;4921236;28;20312;-91
2022/09/16 12:13:14;;;;;;;;;;;;;;;14.95;53.97;97323.94;4927927;29;19957;-91
2022/09/16 12:15:43;;;;;;;;;;;;;;;15.01;53.77;97321.72;4932586;29;19931;-93
2022/09/16 12:18:16;;;;;;;;;;;;;;;15.08;54.08;97325.44;4942293;28;19989;-96
2022/09/16 12:20:46;;;;;;;;;;;;;;;15.00;53.57;97323.66;4930762;29;19923;-81
2022/09/16 12:23:39;;;;;;;;;;;;;;;14.87;52.66;97320.25;4955080;28;19926;-82
2022/09/16 12:26:09;;;;;;;;;;;;;;;14.80;53.22;97319.25;4919288;28;20043;-79
2022/09/16 12:28:41;;;;;;;;;;;;;;;14.66;53.12;97320.50;4949112;29;19922;-82
2022/09/16 12:31:11;;;;;;;;;;;;;;;14.77;53.47;97309.03;4944646;28;20288;-80
2022/09/16 12:33:45;;;;;;;;;;;;;;;14.85;53.67;97302.59;4955506;28;19926;-83
2022/09/16 12:36:14;;;;;;;;;;;;;;;14.88;54.46;97307.34;4937717;29;19926;-81
2022/09/16 12:38:44;;;;;;;;;;;;;;;14.97;54.52;97313.44;4937785;29;19929;-80
2022/09/16 12:41:28;;;;;;;;;;;;;;;14.88;54.49;97308.16;4954861;28;20161;-81
2022/09/16 12:44:05;;;;;;;;;;;;;;;14.71;54.63;97305.00;4926181;28;20365;-80
2022/09/16 12:46:59;;;;;;;;;;;;;;;14.63;55.56;97304.00;4942548;28;19932;-79
2022/09/16 12:49:56;;;;;;;;;;;;;;;14.62;55.80;97305.16;4917554;29;20289;-81
2022/09/16 12:52:31;;;;;;;;;;;;;;;14.67;56.06;97304.88;4942883;28;19923;-80
2022/09/16 12:55:22;;;;;;;;;;;;;;;14.66;56.23;97298.63;4948013;29;19922;-82
2022/09/16 12:57:58;;;;;;;;;;;;;;;14.68;56.62;97306.47;4946230;28;19969;-80
2022/09/16 13:00:26;;;;;;;;;;;;;;;14.72;56.79;97295.63;4970279;28;19953;-79
2022/09/16 13:05:49;;;;;;;;;;;;;;;15.11;56.76;97280.94;4938047;29;19969;-83
2022/09/16 13:10:07;;;;;;;;;;;;;;;15.55;54.80;97272.50;5075629;28;19940;-63
2022/09/16 13:12:35;;;;;;;;;;;;;;;15.62;54.95;97271.88;5060054;28;19929;-64
2022/09/16 13:15:21;;;;;;;;;;;;;;;15.55;54.85;97263.50;5057531;28;19929;-63
2022/09/16 13:17:51;;;;;;;;;;;;;;;15.45;54.70;97268.41;5063772;28;20446;-63
2022/09/16 13:20:20;;;;;;;;;;;;;;;15.50;55.67;97270.06;5074111;28;20384;-64